sensor_id;sensor_type;location;lat;lon;timestamp;pressure;altitude;pressure_sealevel;temperature;humidity
62436;BME280;48480;50.252;18.848;2023-02-19T00:01:16;98424.33;;;6.78;87.74
62436;BME280;48480;50.252;18.848;2023-02-19T00:03:46;98436.14;;;6.93;87.67
62436;BME280;48480;50.252;18.848;2023-02-19T00:06:12;98434.78;;;6.98;87.37
62436;BME280;48480;50.252;18.848;2023-02-19T00:08:38;98431.84;;;7.01;87.26
62436;BME280;48480;50.252;18.848;2023-02-19T00:11:10;98434.95;;;7.04;87.17
62436;BME280;48480;50.252;18.848;2023-02-19T00:13:38;98432.18;;;7.07;87.11
62436;BME280;48480;50.252;18.848;2023-02-19T00:16:12;98431.73;;;7.08;86.76
62436;BME280;48480;50.252;18.848;2023-02-19T00:18:38;98432.35;;;7.09;86.52
62436;BME280;48480;50.252;18.848;2023-02-19T00:21:04;98433.45;;;7.10;86.38
62436;BME280;48480;50.252;18.848;2023-02-19T00:23:30;98432.58;;;7.08;86.03
62436;BME280;48480;50.252;18.848;2023-02-19T00:26:00;98436.25;;;7.09;86.26
62436;BME280;48480;50.252;18.848;2023-02-19T00:28:26;98433.63;;;7.10;86.01
62436;BME280;48480;50.252;18.848;2023-02-19T00:30:51;98432.11;;;7.08;85.76
62436;BME280;48480;50.252;18.848;2023-02-19T00:33:17;98432.70;;;7.11;85.60
62436;BME280;48480;50.252;18.848;2023-02-19T00:35:42;98436.85;;;7.15;85.42
62436;BME280;48480;50.252;18.848;2023-02-19T00:38:08;98422.48;;;7.10;85.02
62436;BME280;48480;50.252;18.848;2023-02-19T00:40:33;98430.22;;;7.16;84.87
62436;BME280;48480;50.252;18.848;2023-02-19T00:42:59;98430.63;;;7.18;84.69
62436;BME280;48480;50.252;18.848;2023-02-19T00:45:24;98429.88;;;7.17;84.66
62436;BME280;48480;50.252;18.848;2023-02-19T00:47:50;98434.34;;;7.17;84.62
62436;BME280;48480;50.252;18.848;2023-02-19T00:50:16;98428.11;;;7.18;84.64
62436;BME280;48480;50.252;18.848;2023-02-19T00:52:42;98425.80;;;7.17;84.71
62436;BME280;48480;50.252;18.848;2023-02-19T00:55:07;98425.87;;;7.17;84.87
62436;BME280;48480;50.252;18.848;2023-02-19T00:57:33;98427.69;;;7.14;85.03
62436;BME280;48480;50.252;18.848;2023-02-19T00:59:58;98418.11;;;7.10;85.19
62436;BME280;48480;50.252;18.848;2023-02-19T01:02:24;98422.92;;;7.05;85.49
62436;BME280;48480;50.252;18.848;2023-02-19T01:04:51;98420.69;;;6.98;85.70
62436;BME280;48480;50.252;18.848;2023-02-19T01:07:17;98418.77;;;6.96;85.99
62436;BME280;48480;50.252;18.848;2023-02-19T01:09:43;98417.86;;;6.92;85.98
62436;BME280;48480;50.252;18.848;2023-02-19T01:12:09;98413.55;;;6.89;86.42
62436;BME280;48480;50.252;18.848;2023-02-19T01:14:34;98414.95;;;6.87;86.50
62436;BME280;48480;50.252;18.848;2023-02-19T01:17:00;98409.46;;;6.84;86.64
62436;BME280;48480;50.252;18.848;2023-02-19T01:19:25;98406.38;;;6.80;86.70
62436;BME280;48480;50.252;18.848;2023-02-19T01:21:50;98399.88;;;6.76;86.85
62436;BME280;48480;50.252;18.848;2023-02-19T01:24:16;98398.02;;;6.73;87.06
62436;BME280;48480;50.252;18.848;2023-02-19T01:26:42;98395.14;;;6.70;87.15
62436;BME280;48480;50.252;18.848;2023-02-19T01:29:08;98392.00;;;6.69;87.44
62436;BME280;48480;50.252;18.848;2023-02-19T01:31:34;98382.71;;;6.65;87.50
62436;BME280;48480;50.252;18.848;2023-02-19T01:34:01;98387.64;;;6.71;87.46
62436;BME280;48480;50.252;18.848;2023-02-19T01:36:28;98389.56;;;6.72;87.58
62436;BME280;48480;50.252;18.848;2023-02-19T01:38:54;98382.20;;;6.72;87.53
62436;BME280;48480;50.252;18.848;2023-02-19T01:41:23;98381.26;;;6.70;87.40
62436;BME280;48480;50.252;18.848;2023-02-19T01:46:39;98379.52;;;6.66;87.81
62436;BME280;48480;50.252;18.848;2023-02-19T01:49:22;98378.09;;;6.66;87.75
62436;BME280;48480;50.252;18.848;2023-02-19T01:54:44;98365.41;;;6.65;87.79
62436;BME280;48480;50.252;18.848;2023-02-19T01:57:15;98361.30;;;6.65;87.85
62436;BME280;48480;50.252;18.848;2023-02-19T01:59:42;98363.23;;;6.68;87.98
62436;BME280;48480;50.252;18.848;2023-02-19T02:02:08;98362.06;;;6.68;87.75
62436;BME280;48480;50.252;18.848;2023-02-19T02:04:34;98363.86;;;6.65;87.73
62436;BME280;48480;50.252;18.848;2023-02-19T02:07:02;98361.42;;;6.60;87.95
62436;BME280;48480;50.252;18.848;2023-02-19T02:09:48;98353.46;;;6.59;88.03
62436;BME280;48480;50.252;18.848;2023-02-19T02:12:32;98347.64;;;6.59;88.16
62436;BME280;48480;50.252;18.848;2023-02-19T02:14:58;98343.17;;;6.58;88.20
62436;BME280;48480;50.252;18.848;2023-02-19T02:20:29;98341.30;;;6.55;88.27
62436;BME280;48480;50.252;18.848;2023-02-19T02:25:59;98339.80;;;6.55;88.45
62436;BME280;48480;50.252;18.848;2023-02-19T02:31:21;98335.96;;;6.56;88.46
62436;BME280;48480;50.252;18.848;2023-02-19T02:34:11;98330.30;;;6.53;88.32
62436;BME280;48480;50.252;18.848;2023-02-19T02:36:42;98329.30;;;6.49;88.36
62436;BME280;48480;50.252;18.848;2023-02-19T02:39:16;98327.03;;;6.45;88.48
62436;BME280;48480;50.252;18.848;2023-02-19T02:41:47;98327.34;;;6.41;88.52
62436;BME280;48480;50.252;18.848;2023-02-19T02:44:34;98325.30;;;6.37;88.65
62436;BME280;48480;50.252;18.848;2023-02-19T02:47:02;98327.46;;;6.34;88.80
62436;BME280;48480;50.252;18.848;2023-02-19T02:49:30;98327.39;;;6.31;88.61
62436;BME280;48480;50.252;18.848;2023-02-19T02:51:56;98315.48;;;6.26;88.72
62436;BME280;48480;50.252;18.848;2023-02-19T02:54:28;98306.15;;;6.20;88.75
62436;BME280;48480;50.252;18.848;2023-02-19T02:57:15;98303.46;;;6.15;88.92
62436;BME280;48480;50.252;18.848;2023-02-19T02:59:42;98305.79;;;6.12;89.08
62436;BME280;48480;50.252;18.848;2023-02-19T03:02:21;98303.77;;;6.12;89.19
62436;BME280;48480;50.252;18.848;2023-02-19T03:05:02;98300.17;;;6.10;89.10
62436;BME280;48480;50.252;18.848;2023-02-19T03:08:10;98300.98;;;6.05;88.96
62436;BME280;48480;50.252;18.848;2023-02-19T03:10:41;98298.48;;;5.98;89.26
62436;BME280;48480;50.252;18.848;2023-02-19T03:13:11;98308.58;;;6.04;89.39
62436;BME280;48480;50.252;18.848;2023-02-19T03:16:01;98316.83;;;6.04;89.28
62436;BME280;48480;50.252;18.848;2023-02-19T03:18:52;98312.64;;;6.02;89.21
62436;BME280;48480;50.252;18.848;2023-02-19T03:21:39;98315.58;;;6.02;89.33
62436;BME280;48480;50.252;18.848;2023-02-19T03:24:07;98312.33;;;6.02;89.38
62436;BME280;48480;50.252;18.848;2023-02-19T03:26:55;98307.70;;;6.03;89.40
62436;BME280;48480;50.252;18.848;2023-02-19T03:29:23;98306.77;;;6.02;89.46
62436;BME280;48480;50.252;18.848;2023-02-19T03:31:54;98302.98;;;6.04;89.61
62436;BME280;48480;50.252;18.848;2023-02-19T03:34:28;98299.65;;;6.06;89.52
62436;BME280;48480;50.252;18.848;2023-02-19T03:37:07;98305.29;;;6.07;89.62
62436;BME280;48480;50.252;18.848;2023-02-19T03:39:34;98306.34;;;6.07;89.57
62436;BME280;48480;50.252;18.848;2023-02-19T03:45:05;98303.22;;;6.13;89.99
62436;BME280;48480;50.252;18.848;2023-02-19T03:47:51;98301.35;;;6.20;89.94
62436;BME280;48480;50.252;18.848;2023-02-19T03:50:26;98296.91;;;6.22;89.63
62436;BME280;48480;50.252;18.848;2023-02-19T03:53:20;98301.27;;;6.22;89.61
62436;BME280;48480;50.252;18.848;2023-02-19T04:01:20;98286.50;;;6.37;89.59
62436;BME280;48480;50.252;18.848;2023-02-19T04:04:07;98279.84;;;6.40;89.51
62436;BME280;48480;50.252;18.848;2023-02-19T04:06:34;98275.27;;;6.43;89.40
62436;BME280;48480;50.252;18.848;2023-02-19T04:09:03;98269.19;;;6.43;89.32
62436;BME280;48480;50.252;18.848;2023-02-19T04:11:31;98268.71;;;6.42;89.30
62436;BME280;48480;50.252;18.848;2023-02-19T04:14:02;98267.60;;;6.42;89.36
62436;BME280;48480;50.252;18.848;2023-02-19T04:16:32;98272.08;;;6.42;89.37
62436;BME280;48480;50.252;18.848;2023-02-19T04:19:05;98273.20;;;6.39;89.47
62436;BME280;48480;50.252;18.848;2023-02-19T04:21:33;98277.25;;;6.42;89.45
62436;BME280;48480;50.252;18.848;2023-02-19T04:24:05;98274.33;;;6.41;89.37
62436;BME280;48480;50.252;18.848;2023-02-19T04:26:32;98273.55;;;6.40;89.54
62436;BME280;48480;50.252;18.848;2023-02-19T04:29:00;98269.70;;;6.41;89.64
62436;BME280;48480;50.252;18.848;2023-02-19T04:31:26;98260.19;;;6.43;89.61
62436;BME280;48480;50.252;18.848;2023-02-19T04:34:00;98257.75;;;6.45;89.64
62436;BME280;48480;50.252;18.848;2023-02-19T04:36:26;98259.45;;;6.45;89.47
62436;BME280;48480;50.252;18.848;2023-02-19T04:38:51;98252.30;;;6.45;89.62
62436;BME280;48480;50.252;18.848;2023-02-19T04:41:17;98247.67;;;6.46;89.66
62436;BME280;48480;50.252;18.848;2023-02-19T04:43:42;98239.91;;;6.47;89.69
62436;BME280;48480;50.252;18.848;2023-02-19T04:46:08;98236.20;;;6.49;89.71
62436;BME280;48480;50.252;18.848;2023-02-19T04:48:33;98235.20;;;6.52;89.61
62436;BME280;48480;50.252;18.848;2023-02-19T04:50:59;98225.65;;;6.46;89.54
62436;BME280;48480;50.252;18.848;2023-02-19T04:53:24;98222.60;;;6.50;89.54
62436;BME280;48480;50.252;18.848;2023-02-19T04:55:50;98211.13;;;6.50;89.64
62436;BME280;48480;50.252;18.848;2023-02-19T04:58:17;98203.27;;;6.51;89.56
62436;BME280;48480;50.252;18.848;2023-02-19T05:00:43;98200.30;;;6.51;89.48
62436;BME280;48480;50.252;18.848;2023-02-19T05:03:08;98195.77;;;6.51;89.40
62436;BME280;48480;50.252;18.848;2023-02-19T05:05:34;98195.56;;;6.51;89.53
62436;BME280;48480;50.252;18.848;2023-02-19T05:07:59;98187.23;;;6.52;89.49
62436;BME280;48480;50.252;18.848;2023-02-19T05:10:25;98184.23;;;6.53;89.50
62436;BME280;48480;50.252;18.848;2023-02-19T05:12:50;98182.04;;;6.53;89.49
62436;BME280;48480;50.252;18.848;2023-02-19T05:15:16;98173.63;;;6.49;89.53
62436;BME280;48480;50.252;18.848;2023-02-19T05:17:42;98178.08;;;6.57;89.57
62436;BME280;48480;50.252;18.848;2023-02-19T05:20:08;98171.27;;;6.59;89.52
62436;BME280;48480;50.252;18.848;2023-02-19T05:22:33;98175.77;;;6.60;89.39
62436;BME280;48480;50.252;18.848;2023-02-19T05:24:58;98169.67;;;6.62;89.27
62436;BME280;48480;50.252;18.848;2023-02-19T05:27:24;98171.11;;;6.61;89.22
62436;BME280;48480;50.252;18.848;2023-02-19T05:29:49;98175.13;;;6.64;89.28
62436;BME280;48480;50.252;18.848;2023-02-19T05:32:15;98173.00;;;6.66;89.23
62436;BME280;48480;50.252;18.848;2023-02-19T05:34:40;98174.16;;;6.67;89.17
62436;BME280;48480;50.252;18.848;2023-02-19T05:37:05;98177.17;;;6.71;89.23
62436;BME280;48480;50.252;18.848;2023-02-19T05:39:31;98185.86;;;6.74;89.21
62436;BME280;48480;50.252;18.848;2023-02-19T05:41:56;98190.13;;;6.76;89.26
62436;BME280;48480;50.252;18.848;2023-02-19T05:44:22;98195.14;;;6.76;89.00
62436;BME280;48480;50.252;18.848;2023-02-19T05:46:47;98202.73;;;6.73;88.91
62436;BME280;48480;50.252;18.848;2023-02-19T05:49:12;98205.70;;;6.70;89.13
62436;BME280;48480;50.252;18.848;2023-02-19T05:51:38;98197.90;;;6.68;89.13
62436;BME280;48480;50.252;18.848;2023-02-19T05:54:03;98197.77;;;6.64;88.92
62436;BME280;48480;50.252;18.848;2023-02-19T05:56:33;98196.59;;;6.58;88.74
62436;BME280;48480;50.252;18.848;2023-02-19T05:59:02;98199.59;;;6.51;88.84
62436;BME280;48480;50.252;18.848;2023-02-19T06:01:33;98187.98;;;6.46;89.09
62436;BME280;48480;50.252;18.848;2023-02-19T06:03:58;98181.29;;;6.44;88.92
62436;BME280;48480;50.252;18.848;2023-02-19T06:06:25;98190.57;;;6.38;88.72
62436;BME280;48480;50.252;18.848;2023-02-19T06:08:51;98196.13;;;6.34;88.88
62436;BME280;48480;50.252;18.848;2023-02-19T06:11:17;98201.86;;;6.33;89.10
62436;BME280;48480;50.252;18.848;2023-02-19T06:13:43;98200.77;;;6.31;89.11
62436;BME280;48480;50.252;18.848;2023-02-19T06:16:09;98194.70;;;6.30;89.32
62436;BME280;48480;50.252;18.848;2023-02-19T06:18:35;98189.23;;;6.30;89.40
62436;BME280;48480;50.252;18.848;2023-02-19T06:21:03;98186.08;;;6.33;89.50
62436;BME280;48480;50.252;18.848;2023-02-19T06:23:30;98188.79;;;6.36;89.61
62436;BME280;48480;50.252;18.848;2023-02-19T06:26:19;98190.79;;;6.40;89.73
62436;BME280;48480;50.252;18.848;2023-02-19T06:28:47;98186.86;;;6.46;89.67
62436;BME280;48480;50.252;18.848;2023-02-19T06:31:15;98186.25;;;6.50;89.66
62436;BME280;48480;50.252;18.848;2023-02-19T06:33:41;98186.91;;;6.54;89.60
62436;BME280;48480;50.252;18.848;2023-02-19T06:36:11;98187.80;;;6.58;89.56
62436;BME280;48480;50.252;18.848;2023-02-19T06:38:38;98183.20;;;6.62;89.62
62436;BME280;48480;50.252;18.848;2023-02-19T06:41:05;98188.91;;;6.64;89.47
62436;BME280;48480;50.252;18.848;2023-02-19T06:43:31;98185.33;;;6.66;89.45
62436;BME280;48480;50.252;18.848;2023-02-19T06:45:58;98188.41;;;6.66;89.51
62436;BME280;48480;50.252;18.848;2023-02-19T06:48:25;98186.19;;;6.68;89.57
62436;BME280;48480;50.252;18.848;2023-02-19T06:50:52;98182.36;;;6.70;89.52
62436;BME280;48480;50.252;18.848;2023-02-19T06:53:17;98182.04;;;6.71;89.56
62436;BME280;48480;50.252;18.848;2023-02-19T06:55:43;98178.86;;;6.71;89.55
62436;BME280;48480;50.252;18.848;2023-02-19T06:58:09;98177.75;;;6.72;89.54
62436;BME280;48480;50.252;18.848;2023-02-19T07:00:34;98177.41;;;6.70;89.58
62436;BME280;48480;50.252;18.848;2023-02-19T07:03:02;98175.61;;;6.69;89.61
62436;BME280;48480;50.252;18.848;2023-02-19T07:05:27;98172.77;;;6.70;89.72
62436;BME280;48480;50.252;18.848;2023-02-19T07:07:53;98174.00;;;6.70;89.77
62436;BME280;48480;50.252;18.848;2023-02-19T07:10:19;98169.16;;;6.69;89.86
62436;BME280;48480;50.252;18.848;2023-02-19T07:12:44;98176.37;;;6.69;89.88
62436;BME280;48480;50.252;18.848;2023-02-19T07:15:10;98171.20;;;6.68;89.96
62436;BME280;48480;50.252;18.848;2023-02-19T07:17:35;98168.81;;;6.67;90.12
62436;BME280;48480;50.252;18.848;2023-02-19T07:20:01;98169.10;;;6.67;90.20
62436;BME280;48480;50.252;18.848;2023-02-19T07:22:27;98170.70;;;6.70;90.31
62436;BME280;48480;50.252;18.848;2023-02-19T07:24:54;98169.63;;;6.72;90.33
62436;BME280;48480;50.252;18.848;2023-02-19T07:27:20;98168.22;;;6.73;90.30
62436;BME280;48480;50.252;18.848;2023-02-19T07:29:46;98140.64;;;6.57;90.35
62436;BME280;48480;50.252;18.848;2023-02-19T07:34:59;98160.81;;;6.81;90.43
62436;BME280;48480;50.252;18.848;2023-02-19T07:37:25;98157.20;;;6.83;90.33
62436;BME280;48480;50.252;18.848;2023-02-19T07:39:50;98162.91;;;6.86;90.36
62436;BME280;48480;50.252;18.848;2023-02-19T07:42:16;98153.34;;;6.89;90.33
62436;BME280;48480;50.252;18.848;2023-02-19T07:44:41;98144.38;;;6.93;90.37
62436;BME280;48480;50.252;18.848;2023-02-19T07:47:07;98138.95;;;6.95;90.42
62436;BME280;48480;50.252;18.848;2023-02-19T07:49:36;98133.83;;;6.97;90.46
62436;BME280;48480;50.252;18.848;2023-02-19T07:52:02;98130.13;;;7.01;90.61
62436;BME280;48480;50.252;18.848;2023-02-19T07:54:29;98126.43;;;7.03;90.57
62436;BME280;48480;50.252;18.848;2023-02-19T07:57:02;98120.91;;;7.06;90.61
62436;BME280;48480;50.252;18.848;2023-02-19T07:59:28;98117.42;;;7.06;90.58
62436;BME280;48480;50.252;18.848;2023-02-19T08:01:54;98112.23;;;7.10;90.78
62436;BME280;48480;50.252;18.848;2023-02-19T08:04:41;98114.54;;;7.16;90.85
62436;BME280;48480;50.252;18.848;2023-02-19T08:07:10;98114.20;;;7.23;91.02
62436;BME280;48480;50.252;18.848;2023-02-19T08:09:35;98118.48;;;7.28;90.76
62436;BME280;48480;50.252;18.848;2023-02-19T08:12:00;98120.83;;;7.30;90.72
62436;BME280;48480;50.252;18.848;2023-02-19T08:17:32;98120.36;;;7.34;90.68
62436;BME280;48480;50.252;18.848;2023-02-19T08:19:58;98120.50;;;7.35;90.69
62436;BME280;48480;50.252;18.848;2023-02-19T08:22:23;98124.88;;;7.40;90.67
62436;BME280;48480;50.252;18.848;2023-02-19T08:24:52;98127.73;;;7.44;90.58
62436;BME280;48480;50.252;18.848;2023-02-19T08:27:17;98129.30;;;7.45;90.29
62436;BME280;48480;50.252;18.848;2023-02-19T08:32:34;98137.42;;;7.47;90.20
62436;BME280;48480;50.252;18.848;2023-02-19T08:35:06;98135.27;;;7.48;90.25
62436;BME280;48480;50.252;18.848;2023-02-19T08:37:36;98140.21;;;7.50;90.20
62436;BME280;48480;50.252;18.848;2023-02-19T08:40:08;98143.59;;;7.49;90.00
62436;BME280;48480;50.252;18.848;2023-02-19T08:42:39;98144.45;;;7.49;90.10
62436;BME280;48480;50.252;18.848;2023-02-19T08:45:05;98144.39;;;7.48;90.12
62436;BME280;48480;50.252;18.848;2023-02-19T08:47:39;98145.59;;;7.45;89.90
62436;BME280;48480;50.252;18.848;2023-02-19T08:53:08;98142.14;;;7.37;90.11
62436;BME280;48480;50.252;18.848;2023-02-19T08:55:40;98147.23;;;7.35;90.19
62436;BME280;48480;50.252;18.848;2023-02-19T08:58:07;98147.92;;;7.33;90.32
62436;BME280;48480;50.252;18.848;2023-02-19T09:00:36;98148.04;;;7.33;90.20
62436;BME280;48480;50.252;18.848;2023-02-19T09:03:03;98159.95;;;7.28;90.18
62436;BME280;48480;50.252;18.848;2023-02-19T09:05:33;98160.14;;;7.27;90.37
62436;BME280;48480;50.252;18.848;2023-02-19T09:08:01;98163.08;;;7.29;90.43
62436;BME280;48480;50.252;18.848;2023-02-19T09:10:27;98163.27;;;7.28;89.79
62436;BME280;48480;50.252;18.848;2023-02-19T09:12:54;98155.75;;;7.20;89.25
62436;BME280;48480;50.252;18.848;2023-02-19T09:15:20;98164.45;;;7.19;88.55
62436;BME280;48480;50.252;18.848;2023-02-19T09:17:52;98167.13;;;7.12;88.36
62436;BME280;48480;50.252;18.848;2023-02-19T09:20:24;98166.75;;;7.09;88.76
62436;BME280;48480;50.252;18.848;2023-02-19T09:22:56;98174.43;;;7.09;88.80
62436;BME280;48480;50.252;18.848;2023-02-19T09:25:25;98177.55;;;7.03;88.81
62436;BME280;48480;50.252;18.848;2023-02-19T09:27:55;98182.11;;;6.96;88.87
62436;BME280;48480;50.252;18.848;2023-02-19T09:30:24;98186.21;;;6.91;89.01
62436;BME280;48480;50.252;18.848;2023-02-19T09:32:59;98185.22;;;6.93;89.20
62436;BME280;48480;50.252;18.848;2023-02-19T09:35:26;98187.24;;;6.98;89.29
62436;BME280;48480;50.252;18.848;2023-02-19T09:37:54;98190.33;;;7.01;89.25
62436;BME280;48480;50.252;18.848;2023-02-19T09:40:23;98191.98;;;7.02;89.08
62436;BME280;48480;50.252;18.848;2023-02-19T09:42:51;98194.76;;;7.04;89.13
62436;BME280;48480;50.252;18.848;2023-02-19T09:45:22;98198.55;;;7.06;88.92
62436;BME280;48480;50.252;18.848;2023-02-19T09:47:58;98202.56;;;7.05;88.51
62436;BME280;48480;50.252;18.848;2023-02-19T09:50:39;98212.39;;;7.08;88.42
62436;BME280;48480;50.252;18.848;2023-02-19T09:53:28;98215.25;;;7.06;87.70
62436;BME280;48480;50.252;18.848;2023-02-19T09:56:00;98223.27;;;6.99;86.88
62436;BME280;48480;50.252;18.848;2023-02-19T09:58:32;98226.56;;;6.95;86.69
62436;BME280;48480;50.252;18.848;2023-02-19T10:01:11;98228.02;;;6.92;86.63
62436;BME280;48480;50.252;18.848;2023-02-19T10:03:48;98229.72;;;6.89;86.58
62436;BME280;48480;50.252;18.848;2023-02-19T10:06:22;98233.41;;;6.88;86.80
62436;BME280;48480;50.252;18.848;2023-02-19T10:08:53;98235.88;;;6.90;86.87
62436;BME280;48480;50.252;18.848;2023-02-19T10:11:22;98239.05;;;6.92;86.86
62436;BME280;48480;50.252;18.848;2023-02-19T10:14:05;98241.86;;;6.93;86.72
62436;BME280;48480;50.252;18.848;2023-02-19T10:16:38;98238.90;;;6.94;86.69
62436;BME280;48480;50.252;18.848;2023-02-19T10:19:14;98229.89;;;6.83;86.57
62436;BME280;48480;50.252;18.848;2023-02-19T10:21:40;98260.49;;;6.88;86.82
62436;BME280;48480;50.252;18.848;2023-02-19T10:24:07;98270.02;;;6.80;85.69
62436;BME280;48480;50.252;18.848;2023-02-19T10:26:38;98273.25;;;6.68;85.11
62436;BME280;48480;50.252;18.848;2023-02-19T10:29:04;98279.84;;;6.56;84.77
62436;BME280;48480;50.252;18.848;2023-02-19T10:31:31;98284.42;;;6.43;84.29
62436;BME280;48480;50.252;18.848;2023-02-19T10:33:59;98286.86;;;6.31;84.22
62436;BME280;48480;50.252;18.848;2023-02-19T10:36:32;98286.04;;;6.22;84.45
62436;BME280;48480;50.252;18.848;2023-02-19T10:39:02;98284.89;;;6.20;84.53
62436;BME280;48480;50.252;18.848;2023-02-19T10:41:33;98291.97;;;6.21;84.90
62436;BME280;48480;50.252;18.848;2023-02-19T10:44:12;98294.98;;;6.23;84.77
62436;BME280;48480;50.252;18.848;2023-02-19T10:46:48;98295.29;;;6.27;85.01
62436;BME280;48480;50.252;18.848;2023-02-19T10:49:31;98295.98;;;6.36;85.29
62436;BME280;48480;50.252;18.848;2023-02-19T10:52:11;98300.33;;;6.48;85.38
62436;BME280;48480;50.252;18.848;2023-02-19T10:54:48;98303.17;;;6.57;84.92
62436;BME280;48480;50.252;18.848;2023-02-19T10:57:15;98303.40;;;6.65;85.24
62436;BME280;48480;50.252;18.848;2023-02-19T11:00:16;98315.22;;;6.69;84.42
62436;BME280;48480;50.252;18.848;2023-02-19T11:02:44;98324.84;;;6.65;83.41
62436;BME280;48480;50.252;18.848;2023-02-19T11:07:55;98335.30;;;6.63;83.39
62436;BME280;48480;50.252;18.848;2023-02-19T11:10:27;98336.55;;;6.63;83.01
62436;BME280;48480;50.252;18.848;2023-02-19T11:13:04;98344.77;;;6.58;82.63
62436;BME280;48480;50.252;18.848;2023-02-19T11:15:35;98349.42;;;6.53;82.51
62436;BME280;48480;50.252;18.848;2023-02-19T11:20:50;98349.46;;;6.55;82.97
62436;BME280;48480;50.252;18.848;2023-02-19T11:23:27;98353.86;;;6.67;83.22
62436;BME280;48480;50.252;18.848;2023-02-19T11:25:56;98353.48;;;6.75;82.83
62436;BME280;48480;50.252;18.848;2023-02-19T11:28:38;98352.82;;;6.78;82.45
62436;BME280;48480;50.252;18.848;2023-02-19T11:31:24;98362.15;;;6.82;81.87
62436;BME280;48480;50.252;18.848;2023-02-19T11:33:58;98364.66;;;6.84;81.41
62436;BME280;48480;50.252;18.848;2023-02-19T11:36:35;98369.23;;;6.80;80.86
62436;BME280;48480;50.252;18.848;2023-02-19T11:39:26;98369.52;;;6.78;80.90
62436;BME280;48480;50.252;18.848;2023-02-19T11:58:05;98415.69;;;6.27;81.19
62436;BME280;48480;50.252;18.848;2023-02-19T12:00:44;98421.92;;;6.15;81.32
62436;BME280;48480;50.252;18.848;2023-02-19T12:06:18;98428.34;;;5.94;81.55
62436;BME280;48480;50.252;18.848;2023-02-19T12:11:48;98435.13;;;5.83;81.56
62436;BME280;48480;50.252;18.848;2023-02-19T12:14:42;98437.36;;;5.79;81.46
62436;BME280;48480;50.252;18.848;2023-02-19T12:28:42;98460.73;;;5.59;80.72
62436;BME280;48480;50.252;18.848;2023-02-19T12:33:59;98460.48;;;5.45;80.40
62436;BME280;48480;50.252;18.848;2023-02-19T12:36:51;98475.48;;;5.47;80.61
62436;BME280;48480;50.252;18.848;2023-02-19T12:45:02;98482.54;;;5.24;79.75
62436;BME280;48480;50.252;18.848;2023-02-19T12:47:36;98482.06;;;5.18;79.70
62436;BME280;48480;50.252;18.848;2023-02-19T12:50:23;98491.54;;;5.10;79.69
62436;BME280;48480;50.252;18.848;2023-02-19T12:55:45;98501.79;;;4.91;80.33
62436;BME280;48480;50.252;18.848;2023-02-19T12:58:45;98510.86;;;4.94;80.44
62436;BME280;48480;50.252;18.848;2023-02-19T13:01:25;98510.87;;;4.92;79.20
62436;BME280;48480;50.252;18.848;2023-02-19T13:06:48;98516.52;;;4.93;78.37
62436;BME280;48480;50.252;18.848;2023-02-19T13:09:44;98516.17;;;4.95;78.46
62436;BME280;48480;50.252;18.848;2023-02-19T13:12:20;98512.25;;;4.92;78.40
62436;BME280;48480;50.252;18.848;2023-02-19T13:14:55;98522.88;;;5.01;78.34
62436;BME280;48480;50.252;18.848;2023-02-19T13:17:37;98529.91;;;5.06;77.78
62436;BME280;48480;50.252;18.848;2023-02-19T13:20:31;98524.13;;;5.05;77.60
62436;BME280;48480;50.252;18.848;2023-02-19T13:37:00;98557.49;;;4.81;75.25
62436;BME280;48480;50.252;18.848;2023-02-19T13:39:26;98560.80;;;4.81;75.08
62436;BME280;48480;50.252;18.848;2023-02-19T13:41:54;98570.38;;;4.80;75.09
62436;BME280;48480;50.252;18.848;2023-02-19T13:44:24;98572.59;;;4.82;75.27
62436;BME280;48480;50.252;18.848;2023-02-19T13:46:51;98575.10;;;4.80;74.54
62436;BME280;48480;50.252;18.848;2023-02-19T13:52:02;98581.17;;;4.79;74.83
62436;BME280;48480;50.252;18.848;2023-02-19T13:54:47;98580.47;;;4.80;75.26
62436;BME280;48480;50.252;18.848;2023-02-19T13:57:26;98587.18;;;4.89;74.92
62436;BME280;48480;50.252;18.848;2023-02-19T13:59:54;98591.02;;;4.98;74.79
62436;BME280;48480;50.252;18.848;2023-02-19T14:04:53;98591.46;;;5.11;73.98
62436;BME280;48480;50.252;18.848;2023-02-19T14:09:52;98599.80;;;5.28;74.67
62436;BME280;48480;50.252;18.848;2023-02-19T14:12:21;98601.16;;;5.41;74.07
62436;BME280;48480;50.252;18.848;2023-02-19T14:14:55;98605.53;;;5.47;73.41
62436;BME280;48480;50.252;18.848;2023-02-19T14:17:38;98608.44;;;5.49;72.86
62436;BME280;48480;50.252;18.848;2023-02-19T14:27:59;98633.77;;;5.42;72.28
62436;BME280;48480;50.252;18.848;2023-02-19T14:30:26;98636.32;;;5.40;71.33
62436;BME280;48480;50.252;18.848;2023-02-19T14:32:51;98643.64;;;5.31;71.64
62436;BME280;48480;50.252;18.848;2023-02-19T14:35:28;98648.20;;;5.33;71.99
62436;BME280;48480;50.252;18.848;2023-02-19T14:37:56;98645.67;;;5.28;70.66
62436;BME280;48480;50.252;18.848;2023-02-19T14:40:29;98648.17;;;5.19;71.34
62436;BME280;48480;50.252;18.848;2023-02-19T14:42:58;98646.50;;;5.22;71.87
62436;BME280;48480;50.252;18.848;2023-02-19T14:45:26;98648.88;;;5.25;71.78
62436;BME280;48480;50.252;18.848;2023-02-19T14:47:55;98654.05;;;5.32;71.91
62436;BME280;48480;50.252;18.848;2023-02-19T14:50:29;98650.95;;;5.33;71.34
62436;BME280;48480;50.252;18.848;2023-02-19T14:53:02;98646.27;;;5.32;70.86
62436;BME280;48480;50.252;18.848;2023-02-19T14:55:35;98652.06;;;5.26;70.88
62436;BME280;48480;50.252;18.848;2023-02-19T14:58:09;98654.25;;;5.24;71.18
62436;BME280;48480;50.252;18.848;2023-02-19T15:00:40;98650.21;;;5.25;71.23
62436;BME280;48480;50.252;18.848;2023-02-19T15:03:24;98650.05;;;5.24;70.83
62436;BME280;48480;50.252;18.848;2023-02-19T15:05:55;98656.89;;;5.18;70.38
62436;BME280;48480;50.252;18.848;2023-02-19T15:08:27;98663.98;;;5.17;71.10
62436;BME280;48480;50.252;18.848;2023-02-19T15:10:54;98663.09;;;5.22;71.27
62436;BME280;48480;50.252;18.848;2023-02-19T15:13:25;98665.59;;;5.21;70.51
62436;BME280;48480;50.252;18.848;2023-02-19T15:15:52;98672.67;;;5.20;70.50